sensor_id;sensor_type;location;lat;lon;timestamp;P1;durP1;ratioP1;P2;durP2;ratioP2
23608;SDS011;11982;50.810;4.442;2023-04-21T00:00:56;26.05;;;17.20;;
23608;SDS011;11982;50.810;4.442;2023-04-21T00:03:26;27.17;;;17.05;;
23608;SDS011;11982;50.810;4.442;2023-04-21T00:05:56;29.13;;;17.08;;
23608;SDS011;11982;50.810;4.442;2023-04-21T00:08:23;34.08;;;17.33;;
23608;SDS011;11982;50.810;4.442;2023-04-21T00:10:50;29.50;;;18.08;;
23608;SDS011;11982;50.810;4.442;2023-04-21T00:13:16;27.80;;;17.88;;
23608;SDS011;11982;50.810;4.442;2023-04-21T00:15:42;25.58;;;16.27;;
23608;SDS011;11982;50.810;4.442;2023-04-21T00:18:07;26.00;;;17.08;;
23608;SDS011;11982;50.810;4.442;2023-04-21T00:20:33;24.42;;;15.93;;
23608;SDS011;11982;50.810;4.442;2023-04-21T00:22:59;24.92;;;16.92;;
23608;SDS011;11982;50.810;4.442;2023-04-21T00:25:25;27.90;;;17.15;;
23608;SDS011;11982;50.810;4.442;2023-04-21T00:27:51;25.23;;;16.52;;
23608;SDS011;11982;50.810;4.442;2023-04-21T00:30:16;24.73;;;16.13;;
23608;SDS011;11982;50.810;4.442;2023-04-21T00:32:42;25.00;;;16.80;;
23608;SDS011;11982;50.810;4.442;2023-04-21T00:35:08;23.50;;;16.95;;
23608;SDS011;11982;50.810;4.442;2023-04-21T00:37:34;25.50;;;16.77;;
23608;SDS011;11982;50.810;4.442;2023-04-21T00:40:00;23.90;;;17.83;;
23608;SDS011;11982;50.810;4.442;2023-04-21T00:42:26;27.15;;;16.73;;
23608;SDS011;11982;50.810;4.442;2023-04-21T00:44:51;28.50;;;18.35;;
23608;SDS011;11982;50.810;4.442;2023-04-21T00:47:18;29.23;;;19.15;;
23608;SDS011;11982;50.810;4.442;2023-04-21T00:49:44;27.75;;;17.77;;
23608;SDS011;11982;50.810;4.442;2023-04-21T00:52:11;26.73;;;18.77;;
23608;SDS011;11982;50.810;4.442;2023-04-21T00:54:37;25.65;;;16.33;;
23608;SDS011;11982;50.810;4.442;2023-04-21T00:57:04;26.27;;;17.40;;
23608;SDS011;11982;50.810;4.442;2023-04-21T00:59:32;26.42;;;17.20;;
23608;SDS011;11982;50.810;4.442;2023-04-21T01:01:58;24.08;;;16.42;;
23608;SDS011;11982;50.810;4.442;2023-04-21T01:04:23;22.17;;;15.38;;
23608;SDS011;11982;50.810;4.442;2023-04-21T01:06:49;23.60;;;15.77;;
23608;SDS011;11982;50.810;4.442;2023-04-21T01:09:16;27.10;;;16.83;;
23608;SDS011;11982;50.810;4.442;2023-04-21T01:11:41;22.88;;;16.15;;
23608;SDS011;11982;50.810;4.442;2023-04-21T01:14:24;24.40;;;17.33;;
23608;SDS011;11982;50.810;4.442;2023-04-21T01:16:50;29.70;;;17.88;;
23608;SDS011;11982;50.810;4.442;2023-04-21T01:19:16;26.25;;;16.80;;
23608;SDS011;11982;50.810;4.442;2023-04-21T01:21:42;25.83;;;17.52;;
23608;SDS011;11982;50.810;4.442;2023-04-21T01:24:08;25.48;;;17.40;;
23608;SDS011;11982;50.810;4.442;2023-04-21T01:26:35;27.52;;;18.65;;
23608;SDS011;11982;50.810;4.442;2023-04-21T01:29:01;32.92;;;19.98;;
23608;SDS011;11982;50.810;4.442;2023-04-21T01:31:27;36.78;;;25.65;;
23608;SDS011;11982;50.810;4.442;2023-04-21T01:33:53;35.83;;;23.88;;
23608;SDS011;11982;50.810;4.442;2023-04-21T01:36:18;38.15;;;25.33;;
23608;SDS011;11982;50.810;4.442;2023-04-21T01:38:44;42.22;;;25.85;;
23608;SDS011;11982;50.810;4.442;2023-04-21T01:41:10;43.20;;;29.27;;
23608;SDS011;11982;50.810;4.442;2023-04-21T01:43:35;42.47;;;27.88;;
23608;SDS011;11982;50.810;4.442;2023-04-21T01:46:02;48.42;;;29.48;;
23608;SDS011;11982;50.810;4.442;2023-04-21T01:48:28;50.15;;;30.70;;
23608;SDS011;11982;50.810;4.442;2023-04-21T01:50:54;51.75;;;32.22;;
23608;SDS011;11982;50.810;4.442;2023-04-21T01:53:20;46.40;;;30.17;;
23608;SDS011;11982;50.810;4.442;2023-04-21T01:55:45;54.20;;;33.40;;
23608;SDS011;11982;50.810;4.442;2023-04-21T01:58:11;54.33;;;32.28;;
23608;SDS011;11982;50.810;4.442;2023-04-21T02:00:37;56.92;;;35.28;;
23608;SDS011;11982;50.810;4.442;2023-04-21T02:03:02;59.88;;;36.00;;
23608;SDS011;11982;50.810;4.442;2023-04-21T02:05:28;61.50;;;36.58;;
23608;SDS011;11982;50.810;4.442;2023-04-21T02:07:54;65.32;;;38.78;;
23608;SDS011;11982;50.810;4.442;2023-04-21T02:10:19;63.92;;;38.95;;
23608;SDS011;11982;50.810;4.442;2023-04-21T02:12:45;67.88;;;38.28;;
23608;SDS011;11982;50.810;4.442;2023-04-21T02:15:11;70.75;;;41.28;;
23608;SDS011;11982;50.810;4.442;2023-04-21T02:17:36;71.75;;;42.60;;
23608;SDS011;11982;50.810;4.442;2023-04-21T02:20:03;77.18;;;43.40;;
23608;SDS011;11982;50.810;4.442;2023-04-21T02:22:29;74.15;;;43.58;;
23608;SDS011;11982;50.810;4.442;2023-04-21T02:24:56;73.32;;;43.83;;
23608;SDS011;11982;50.810;4.442;2023-04-21T02:27:22;77.95;;;44.05;;
23608;SDS011;11982;50.810;4.442;2023-04-21T02:29:47;77.85;;;46.38;;
23608;SDS011;11982;50.810;4.442;2023-04-21T02:32:13;79.72;;;44.50;;
23608;SDS011;11982;50.810;4.442;2023-04-21T02:34:38;81.57;;;47.10;;
23608;SDS011;11982;50.810;4.442;2023-04-21T02:37:06;80.50;;;47.13;;
23608;SDS011;11982;50.810;4.442;2023-04-21T02:39:31;86.88;;;49.83;;
23608;SDS011;11982;50.810;4.442;2023-04-21T02:41:57;85.13;;;50.00;;
23608;SDS011;11982;50.810;4.442;2023-04-21T02:44:23;84.28;;;49.67;;
23608;SDS011;11982;50.810;4.442;2023-04-21T02:46:48;93.97;;;51.75;;
23608;SDS011;11982;50.810;4.442;2023-04-21T02:49:14;87.32;;;49.60;;
23608;SDS011;11982;50.810;4.442;2023-04-21T02:51:40;95.43;;;53.45;;
23608;SDS011;11982;50.810;4.442;2023-04-21T02:54:05;92.10;;;51.65;;
23608;SDS011;11982;50.810;4.442;2023-04-21T02:56:31;93.45;;;50.92;;
23608;SDS011;11982;50.810;4.442;2023-04-21T02:58:58;88.25;;;50.65;;
23608;SDS011;11982;50.810;4.442;2023-04-21T03:01:24;98.90;;;53.75;;
23608;SDS011;11982;50.810;4.442;2023-04-21T03:03:50;93.10;;;53.05;;
23608;SDS011;11982;50.810;4.442;2023-04-21T03:06:16;90.95;;;51.65;;
23608;SDS011;11982;50.810;4.442;2023-04-21T03:08:41;93.03;;;52.13;;
23608;SDS011;11982;50.810;4.442;2023-04-21T03:11:07;97.65;;;53.25;;
23608;SDS011;11982;50.810;4.442;2023-04-21T03:13:33;95.65;;;53.22;;
23608;SDS011;11982;50.810;4.442;2023-04-21T03:15:59;97.50;;;54.05;;
23608;SDS011;11982;50.810;4.442;2023-04-21T03:18:25;95.85;;;53.03;;
23608;SDS011;11982;50.810;4.442;2023-04-21T03:20:50;95.70;;;52.80;;
23608;SDS011;11982;50.810;4.442;2023-04-21T03:23:16;91.43;;;51.58;;
23608;SDS011;11982;50.810;4.442;2023-04-21T03:25:42;95.63;;;52.38;;
23608;SDS011;11982;50.810;4.442;2023-04-21T03:28:08;97.70;;;53.88;;
23608;SDS011;11982;50.810;4.442;2023-04-21T03:30:33;95.05;;;53.80;;
23608;SDS011;11982;50.810;4.442;2023-04-21T03:32:59;107.25;;;56.70;;
23608;SDS011;11982;50.810;4.442;2023-04-21T03:35:25;97.72;;;54.95;;
23608;SDS011;11982;50.810;4.442;2023-04-21T03:37:51;102.15;;;55.20;;
23608;SDS011;11982;50.810;4.442;2023-04-21T03:40:17;95.72;;;53.72;;
23608;SDS011;11982;50.810;4.442;2023-04-21T03:42:43;97.68;;;53.83;;
23608;SDS011;11982;50.810;4.442;2023-04-21T03:45:08;91.32;;;51.70;;
23608;SDS011;11982;50.810;4.442;2023-04-21T03:47:35;99.57;;;53.67;;
23608;SDS011;11982;50.810;4.442;2023-04-21T03:50:04;93.75;;;53.67;;
23608;SDS011;11982;50.810;4.442;2023-04-21T03:52:31;90.03;;;52.45;;
23608;SDS011;11982;50.810;4.442;2023-04-21T03:54:57;98.40;;;53.80;;
23608;SDS011;11982;50.810;4.442;2023-04-21T03:57:23;93.82;;;52.03;;
23608;SDS011;11982;50.810;4.442;2023-04-21T03:59:48;90.13;;;52.22;;
23608;SDS011;11982;50.810;4.442;2023-04-21T04:02:14;102.28;;;52.97;;
23608;SDS011;11982;50.810;4.442;2023-04-21T04:04:40;99.72;;;53.22;;
23608;SDS011;11982;50.810;4.442;2023-04-21T04:07:05;101.03;;;53.88;;
23608;SDS011;11982;50.810;4.442;2023-04-21T04:09:32;94.32;;;51.65;;
23608;SDS011;11982;50.810;4.442;2023-04-21T04:11:58;99.10;;;53.65;;
23608;SDS011;11982;50.810;4.442;2023-04-21T04:14:24;94.72;;;52.17;;
23608;SDS011;11982;50.810;4.442;2023-04-21T04:16:49;101.00;;;53.72;;
23608;SDS011;11982;50.810;4.442;2023-04-21T04:19:15;96.47;;;53.53;;
23608;SDS011;11982;50.810;4.442;2023-04-21T04:21:41;103.75;;;53.83;;
23608;SDS011;11982;50.810;4.442;2023-04-21T04:24:06;96.50;;;53.47;;
23608;SDS011;11982;50.810;4.442;2023-04-21T04:26:33;97.90;;;54.10;;
23608;SDS011;11982;50.810;4.442;2023-04-21T04:28:59;101.55;;;53.63;;
23608;SDS011;11982;50.810;4.442;2023-04-21T04:31:27;96.03;;;54.63;;
23608;SDS011;11982;50.810;4.442;2023-04-21T04:33:54;95.30;;;52.83;;
23608;SDS011;11982;50.810;4.442;2023-04-21T04:36:20;98.57;;;54.17;;
23608;SDS011;11982;50.810;4.442;2023-04-21T04:38:47;107.68;;;55.70;;
23608;SDS011;11982;50.810;4.442;2023-04-21T04:41:12;96.00;;;54.38;;
23608;SDS011;11982;50.810;4.442;2023-04-21T04:43:39;97.40;;;52.92;;
23608;SDS011;11982;50.810;4.442;2023-04-21T04:46:05;98.05;;;52.63;;
23608;SDS011;11982;50.810;4.442;2023-04-21T04:48:33;97.10;;;52.95;;
23608;SDS011;11982;50.810;4.442;2023-04-21T04:50:59;94.57;;;51.72;;
23608;SDS011;11982;50.810;4.442;2023-04-21T04:53:26;97.18;;;53.38;;
23608;SDS011;11982;50.810;4.442;2023-04-21T04:55:52;95.55;;;51.45;;
23608;SDS011;11982;50.810;4.442;2023-04-21T04:58:18;101.22;;;53.20;;
23608;SDS011;11982;50.810;4.442;2023-04-21T05:00:44;97.88;;;54.28;;
23608;SDS011;11982;50.810;4.442;2023-04-21T05:03:10;101.65;;;51.97;;
23608;SDS011;11982;50.810;4.442;2023-04-21T05:05:35;98.53;;;52.08;;
23608;SDS011;11982;50.810;4.442;2023-04-21T05:08:01;101.40;;;51.95;;
23608;SDS011;11982;50.810;4.442;2023-04-21T05:10:27;101.13;;;53.90;;
23608;SDS011;11982;50.810;4.442;2023-04-21T05:12:52;97.65;;;53.67;;
23608;SDS011;11982;50.810;4.442;2023-04-21T05:15:18;97.28;;;52.53;;
23608;SDS011;11982;50.810;4.442;2023-04-21T05:17:43;95.28;;;51.78;;
23608;SDS011;11982;50.810;4.442;2023-04-21T05:20:09;93.68;;;51.78;;
23608;SDS011;11982;50.810;4.442;2023-04-21T05:22:36;92.80;;;52.50;;
23608;SDS011;11982;50.810;4.442;2023-04-21T05:25:02;84.25;;;48.40;;
23608;SDS011;11982;50.810;4.442;2023-04-21T05:27:29;87.15;;;48.28;;
23608;SDS011;11982;50.810;4.442;2023-04-21T05:29:55;83.28;;;47.15;;
23608;SDS011;11982;50.810;4.442;2023-04-21T05:32:21;81.07;;;46.65;;
23608;SDS011;11982;50.810;4.442;2023-04-21T05:34:47;80.05;;;46.63;;
23608;SDS011;11982;50.810;4.442;2023-04-21T05:37:12;78.78;;;46.28;;
23608;SDS011;11982;50.810;4.442;2023-04-21T05:39:38;80.40;;;46.60;;
23608;SDS011;11982;50.810;4.442;2023-04-21T05:42:03;80.00;;;45.25;;
23608;SDS011;11982;50.810;4.442;2023-04-21T05:44:30;82.35;;;46.13;;
23608;SDS011;11982;50.810;4.442;2023-04-21T05:46:56;78.45;;;45.45;;
23608;SDS011;11982;50.810;4.442;2023-04-21T05:49:21;78.50;;;44.28;;
23608;SDS011;11982;50.810;4.442;2023-04-21T05:51:47;81.72;;;46.90;;
23608;SDS011;11982;50.810;4.442;2023-04-21T05:54:13;71.55;;;42.60;;
23608;SDS011;11982;50.810;4.442;2023-04-21T05:56:38;76.18;;;44.25;;
23608;SDS011;11982;50.810;4.442;2023-04-21T05:59:04;78.45;;;45.25;;
23608;SDS011;11982;50.810;4.442;2023-04-21T06:01:31;75.88;;;44.90;;
23608;SDS011;11982;50.810;4.442;2023-04-21T06:03:57;75.68;;;42.63;;
23608;SDS011;11982;50.810;4.442;2023-04-21T06:06:24;73.75;;;42.90;;
23608;SDS011;11982;50.810;4.442;2023-04-21T06:08:51;71.55;;;41.53;;
23608;SDS011;11982;50.810;4.442;2023-04-21T06:11:17;68.90;;;41.20;;
23608;SDS011;11982;50.810;4.442;2023-04-21T06:13:43;64.22;;;39.10;;
23608;SDS011;11982;50.810;4.442;2023-04-21T06:16:08;66.53;;;40.45;;
23608;SDS011;11982;50.810;4.442;2023-04-21T06:18:34;64.20;;;40.33;;
23608;SDS011;11982;50.810;4.442;2023-04-21T06:21:00;63.08;;;39.38;;
23608;SDS011;11982;50.810;4.442;2023-04-21T06:23:25;63.55;;;39.40;;
23608;SDS011;11982;50.810;4.442;2023-04-21T06:26:01;66.93;;;40.05;;
23608;SDS011;11982;50.810;4.442;2023-04-21T06:28:29;65.07;;;37.75;;
23608;SDS011;11982;50.810;4.442;2023-04-21T06:30:56;60.45;;;37.30;;
23608;SDS011;11982;50.810;4.442;2023-04-21T06:33:22;59.17;;;36.53;;
23608;SDS011;11982;50.810;4.442;2023-04-21T06:35:48;55.97;;;36.15;;
23608;SDS011;11982;50.810;4.442;2023-04-21T06:38:14;57.20;;;35.55;;
23608;SDS011;11982;50.810;4.442;2023-04-21T06:40:40;54.25;;;34.17;;
23608;SDS011;11982;50.810;4.442;2023-04-21T06:43:05;53.22;;;34.80;;
23608;SDS011;11982;50.810;4.442;2023-04-21T06:45:31;53.92;;;34.55;;
23608;SDS011;11982;50.810;4.442;2023-04-21T06:47:57;53.05;;;33.53;;
23608;SDS011;11982;50.810;4.442;2023-04-21T06:50:22;49.67;;;31.65;;
23608;SDS011;11982;50.810;4.442;2023-04-21T06:52:48;50.35;;;31.83;;
23608;SDS011;11982;50.810;4.442;2023-04-21T06:55:14;44.28;;;29.90;;
23608;SDS011;11982;50.810;4.442;2023-04-21T06:57:39;46.13;;;29.65;;
23608;SDS011;11982;50.810;4.442;2023-04-21T07:00:05;46.50;;;30.00;;
23608;SDS011;11982;50.810;4.442;2023-04-21T07:02:31;43.70;;;28.15;;
23608;SDS011;11982;50.810;4.442;2023-04-21T07:04:57;42.65;;;27.75;;
23608;SDS011;11982;50.810;4.442;2023-04-21T07:07:23;44.47;;;27.70;;
23608;SDS011;11982;50.810;4.442;2023-04-21T07:09:48;39.45;;;27.48;;
23608;SDS011;11982;50.810;4.442;2023-04-21T07:12:14;37.20;;;24.90;;
23608;SDS011;11982;50.810;4.442;2023-04-21T07:14:40;40.13;;;27.13;;
23608;SDS011;11982;50.810;4.442;2023-04-21T07:17:05;43.70;;;26.52;;
23608;SDS011;11982;50.810;4.442;2023-04-21T07:19:31;38.88;;;25.45;;
23608;SDS011;11982;50.810;4.442;2023-04-21T07:21:57;37.50;;;25.33;;
23608;SDS011;11982;50.810;4.442;2023-04-21T07:24:23;37.05;;;24.90;;
23608;SDS011;11982;50.810;4.442;2023-04-21T07:26:48;37.33;;;25.48;;
23608;SDS011;11982;50.810;4.442;2023-04-21T07:29:14;38.33;;;25.27;;
23608;SDS011;11982;50.810;4.442;2023-04-21T07:31:40;36.05;;;24.63;;
23608;SDS011;11982;50.810;4.442;2023-04-21T07:34:06;40.08;;;25.73;;
23608;SDS011;11982;50.810;4.442;2023-04-21T07:36:32;36.22;;;24.98;;
23608;SDS011;11982;50.810;4.442;2023-04-21T07:38:57;36.92;;;24.60;;
23608;SDS011;11982;50.810;4.442;2023-04-21T07:41:23;34.03;;;23.02;;
23608;SDS011;11982;50.810;4.442;2023-04-21T07:43:49;34.13;;;23.17;;
23608;SDS011;11982;50.810;4.442;2023-04-21T07:46:15;33.58;;;23.27;;
23608;SDS011;11982;50.810;4.442;2023-04-21T07:48:40;34.40;;;23.67;;
23608;SDS011;11982;50.810;4.442;2023-04-21T07:51:06;31.52;;;22.65;;
23608;SDS011;11982;50.810;4.442;2023-04-21T07:53:32;31.90;;;22.13;;
23608;SDS011;11982;50.810;4.442;2023-04-21T07:55:57;31.13;;;21.95;;
23608;SDS011;11982;50.810;4.442;2023-04-21T07:58:23;27.75;;;19.63;;
23608;SDS011;11982;50.810;4.442;2023-04-21T08:00:49;29.02;;;21.25;;
23608;SDS011;11982;50.810;4.442;2023-04-21T08:03:15;30.08;;;20.90;;
23608;SDS011;11982;50.810;4.442;2023-04-21T08:05:40;29.48;;;20.02;;
23608;SDS011;11982;50.810;4.442;2023-04-21T08:08:06;28.27;;;20.45;;
23608;SDS011;11982;50.810;4.442;2023-04-21T08:10:32;28.95;;;20.63;;
23608;SDS011;11982;50.810;4.442;2023-04-21T08:12:58;28.92;;;20.45;;
23608;SDS011;11982;50.810;4.442;2023-04-21T08:15:24;28.00;;;20.92;;
23608;SDS011;11982;50.810;4.442;2023-04-21T08:17:50;26.45;;;19.55;;
23608;SDS011;11982;50.810;4.442;2023-04-21T08:20:16;28.92;;;21.42;;
23608;SDS011;11982;50.810;4.442;2023-04-21T08:22:42;28.42;;;20.13;;
23608;SDS011;11982;50.810;4.442;2023-04-21T08:25:07;24.42;;;19.00;;
23608;SDS011;11982;50.810;4.442;2023-04-21T08:27:36;25.33;;;18.88;;
23608;SDS011;11982;50.810;4.442;2023-04-21T08:30:02;27.10;;;19.13;;
23608;SDS011;11982;50.810;4.442;2023-04-21T08:32:28;25.52;;;19.40;;
23608;SDS011;11982;50.810;4.442;2023-04-21T08:34:54;28.70;;;19.95;;
23608;SDS011;11982;50.810;4.442;2023-04-21T08:37:20;24.30;;;18.40;;
23608;SDS011;11982;50.810;4.442;2023-04-21T08:39:46;26.83;;;17.42;;
23608;SDS011;11982;50.810;4.442;2023-04-21T08:42:15;26.45;;;18.33;;
23608;SDS011;11982;50.810;4.442;2023-04-21T08:44:41;24.10;;;17.38;;
23608;SDS011;11982;50.810;4.442;2023-04-21T08:47:10;23.13;;;16.45;;
23608;SDS011;11982;50.810;4.442;2023-04-21T08:49:37;23.10;;;17.00;;
23608;SDS011;11982;50.810;4.442;2023-04-21T08:52:04;23.63;;;16.90;;
23608;SDS011;11982;50.810;4.442;2023-04-21T08:54:31;27.75;;;18.55;;
23608;SDS011;11982;50.810;4.442;2023-04-21T08:56:57;25.48;;;18.23;;
23608;SDS011;11982;50.810;4.442;2023-04-21T08:59:23;21.98;;;16.90;;
23608;SDS011;11982;50.810;4.442;2023-04-21T09:04:41;22.85;;;16.67;;
23608;SDS011;11982;50.810;4.442;2023-04-21T09:07:08;22.00;;;16.98;;
23608;SDS011;11982;50.810;4.442;2023-04-21T09:12:30;26.85;;;18.48;;
23608;SDS011;11982;50.810;4.442;2023-04-21T09:14:56;27.00;;;18.65;;
23608;SDS011;11982;50.810;4.442;2023-04-21T09:17:28;24.60;;;18.85;;
23608;SDS011;11982;50.810;4.442;2023-04-21T09:20:12;23.02;;;17.95;;
23608;SDS011;11982;50.810;4.442;2023-04-21T09:22:39;25.85;;;16.92;;
23608;SDS011;11982;50.810;4.442;2023-04-21T09:25:05;23.58;;;17.52;;
23608;SDS011;11982;50.810;4.442;2023-04-21T09:27:31;24.27;;;17.90;;
23608;SDS011;11982;50.810;4.442;2023-04-21T09:30:03;22.83;;;16.70;;
23608;SDS011;11982;50.810;4.442;2023-04-21T09:32:37;23.83;;;18.25;;
23608;SDS011;11982;50.810;4.442;2023-04-21T09:35:13;25.63;;;17.95;;
23608;SDS011;11982;50.810;4.442;2023-04-21T09:37:39;26.02;;;18.63;;
23608;SDS011;11982;50.810;4.442;2023-04-21T09:40:07;24.83;;;17.17;;
23608;SDS011;11982;50.810;4.442;2023-04-21T09:42:42;23.13;;;16.98;;
23608;SDS011;11982;50.810;4.442;2023-04-21T09:45:08;22.58;;;16.85;;
23608;SDS011;11982;50.810;4.442;2023-04-21T09:47:35;21.92;;;15.70;;
23608;SDS011;11982;50.810;4.442;2023-04-21T09:50:10;22.83;;;15.35;;
23608;SDS011;11982;50.810;4.442;2023-04-21T09:52:37;23.92;;;15.80;;
23608;SDS011;11982;50.810;4.442;2023-04-21T09:55:06;23.30;;;15.43;;
23608;SDS011;11982;50.810;4.442;2023-04-21T09:57:36;20.98;;;15.02;;
23608;SDS011;11982;50.810;4.442;2023-04-21T10:00:04;19.77;;;14.45;;
23608;SDS011;11982;50.810;4.442;2023-04-21T10:02:37;20.33;;;14.25;;
23608;SDS011;11982;50.810;4.442;2023-04-21T10:05:11;18.13;;;13.98;;
23608;SDS011;11982;50.810;4.442;2023-04-21T10:07:37;22.42;;;16.80;;
23608;SDS011;11982;50.810;4.442;2023-04-21T10:10:05;20.20;;;14.52;;
23608;SDS011;11982;50.810;4.442;2023-04-21T10:12:33;20.45;;;14.23;;
23608;SDS011;11982;50.810;4.442;2023-04-21T10:15:02;19.27;;;15.38;;
23608;SDS011;11982;50.810;4.442;2023-04-21T10:17:29;21.30;;;14.60;;
23608;SDS011;11982;50.810;4.442;2023-04-21T10:20:00;19.85;;;13.38;;
23608;SDS011;11982;50.810;4.442;2023-04-21T10:22:31;21.67;;;15.48;;
23608;SDS011;11982;50.810;4.442;2023-04-21T10:24:59;22.98;;;15.07;;
23608;SDS011;11982;50.810;4.442;2023-04-21T10:30:23;21.30;;;15.75;;
23608;SDS011;11982;50.810;4.442;2023-04-21T10:33:02;21.65;;;15.55;;
23608;SDS011;11982;50.810;4.442;2023-04-21T10:38:39;24.20;;;15.52;;
23608;SDS011;11982;50.810;4.442;2023-04-21T10:43:52;18.08;;;12.73;;
23608;SDS011;11982;50.810;4.442;2023-04-21T10:46:37;17.25;;;13.75;;
23608;SDS011;11982;50.810;4.442;2023-04-21T10:49:05;20.10;;;12.35;;
23608;SDS011;11982;50.810;4.442;2023-04-21T10:57:10;18.33;;;12.45;;
23608;SDS011;11982;50.810;4.442;2023-04-21T10:59:40;15.43;;;11.73;;
23608;SDS011;11982;50.810;4.442;2023-04-21T11:02:16;14.57;;;11.50;;
23608;SDS011;11982;50.810;4.442;2023-04-21T11:04:43;19.10;;;11.65;;
23608;SDS011;11982;50.810;4.442;2023-04-21T11:07:15;16.48;;;12.43;;
23608;SDS011;11982;50.810;4.442;2023-04-21T11:09:42;17.50;;;13.07;;
23608;SDS011;11982;50.810;4.442;2023-04-21T11:12:13;19.48;;;13.00;;
23608;SDS011;11982;50.810;4.442;2023-04-21T11:14:42;16.20;;;12.48;;
23608;SDS011;11982;50.810;4.442;2023-04-21T11:17:10;14.48;;;11.45;;
23608;SDS011;11982;50.810;4.442;2023-04-21T11:19:37;15.05;;;12.43;;
23608;SDS011;11982;50.810;4.442;2023-04-21T11:22:03;12.05;;;9.85;;
23608;SDS011;11982;50.810;4.442;2023-04-21T11:24:30;12.75;;;10.57;;
23608;SDS011;11982;50.810;4.442;2023-04-21T11:26:56;14.70;;;10.05;;
23608;SDS011;11982;50.810;4.442;2023-04-21T11:29:22;17.95;;;11.20;;
23608;SDS011;11982;50.810;4.442;2023-04-21T11:31:50;17.38;;;12.75;;
23608;SDS011;11982;50.810;4.442;2023-04-21T11:34:19;18.40;;;13.50;;
23608;SDS011;11982;50.810;4.442;2023-04-21T11:36:45;15.88;;;12.90;;
23608;SDS011;11982;50.810;4.442;2023-04-21T11:39:12;22.27;;;14.68;;
23608;SDS011;11982;50.810;4.442;2023-04-21T11:41:43;19.83;;;13.90;;
23608;SDS011;11982;50.810;4.442;2023-04-21T11:44:11;19.10;;;13.45;;
23608;SDS011;11982;50.810;4.442;2023-04-21T11:46:44;18.50;;;12.30;;
23608;SDS011;11982;50.810;4.442;2023-04-21T11:49:13;14.00;;;11.20;;
23608;SDS011;11982;50.810;4.442;2023-04-21T11:51:41;13.77;;;9.82;;
23608;SDS011;11982;50.810;4.442;2023-04-21T11:54:08;18.33;;;10.50;;
23608;SDS011;11982;50.810;4.442;2023-04-21T11:56:36;14.07;;;10.60;;
23608;SDS011;11982;50.810;4.442;2023-04-21T11:59:12;14.55;;;11.35;;
23608;SDS011;11982;50.810;4.442;2023-04-21T12:01:43;12.13;;;10.52;;
23608;SDS011;11982;50.810;4.442;2023-04-21T12:04:12;13.10;;;9.45;;
23608;SDS011;11982;50.810;4.442;2023-04-21T12:06:40;12.73;;;9.60;;
23608;SDS011;11982;50.810;4.442;2023-04-21T12:09:06;13.32;;;9.90;;
23608;SDS011;11982;50.810;4.442;2023-04-21T12:11:32;15.73;;;10.98;;
23608;SDS011;11982;50.810;4.442;2023-04-21T12:13:58;14.30;;;11.23;;
23608;SDS011;11982;50.810;4.442;2023-04-21T12:16:25;15.48;;;11.05;;
23608;SDS011;11982;50.810;4.442;2023-04-21T12:18:53;17.00;;;10.95;;
23608;SDS011;11982;50.810;4.442;2023-04-21T12:21:26;16.63;;;11.50;;
23608;SDS011;11982;50.810;4.442;2023-04-21T12:23:52;14.20;;;10.15;;
23608;SDS011;11982;50.810;4.442;2023-04-21T12:26:18;11.52;;;8.75;;
23608;SDS011;11982;50.810;4.442;2023-04-21T12:28:43;14.32;;;9.45;;
23608;SDS011;11982;50.810;4.442;2023-04-21T12:31:09;13.65;;;10.05;;
23608;SDS011;11982;50.810;4.442;2023-04-21T12:33:35;13.60;;;9.88;;
23608;SDS011;11982;50.810;4.442;2023-04-21T12:36:01;13.02;;;9.93;;
23608;SDS011;11982;50.810;4.442;2023-04-21T12:38:26;10.50;;;9.20;;
23608;SDS011;11982;50.810;4.442;2023-04-21T12:40:52;11.68;;;8.68;;
23608;SDS011;11982;50.810;4.442;2023-04-21T12:43:18;11.18;;;9.02;;
23608;SDS011;11982;50.810;4.442;2023-04-21T12:45:43;11.45;;;8.00;;
23608;SDS011;11982;50.810;4.442;2023-04-21T12:48:09;13.43;;;9.25;;
23608;SDS011;11982;50.810;4.442;2023-04-21T12:50:36;11.15;;;9.00;;
23608;SDS011;11982;50.810;4.442;2023-04-21T12:53:01;13.82;;;9.80;;
23608;SDS011;11982;50.810;4.442;2023-04-21T12:55:27;11.70;;;9.27;;
23608;SDS011;11982;50.810;4.442;2023-04-21T12:57:53;12.82;;;8.77;;
23608;SDS011;11982;50.810;4.442;2023-04-21T13:00:19;11.52;;;9.07;;
23608;SDS011;11982;50.810;4.442;2023-04-21T13:02:44;15.13;;;10.45;;
23608;SDS011;11982;50.810;4.442;2023-04-21T13:05:10;13.23;;;10.43;;
23608;SDS011;11982;50.810;4.442;2023-04-21T13:07:37;10.68;;;8.10;;
23608;SDS011;11982;50.810;4.442;2023-04-21T13:10:03;11.73;;;8.35;;
23608;SDS011;11982;50.810;4.442;2023-04-21T13:12:30;9.52;;;8.30;;
23608;SDS011;11982;50.810;4.442;2023-04-21T13:14:57;10.57;;;8.68;;
23608;SDS011;11982;50.810;4.442;2023-04-21T13:17:23;10.73;;;7.72;;
23608;SDS011;11982;50.810;4.442;2023-04-21T13:19:49;12.93;;;9.07;;
23608;SDS011;11982;50.810;4.442;2023-04-21T13:22:15;10.57;;;8.88;;
23608;SDS011;11982;50.810;4.442;2023-04-21T13:24:41;11.82;;;9.55;;
23608;SDS011;11982;50.810;4.442;2023-04-21T13:27:06;12.73;;;8.93;;
23608;SDS011;11982;50.810;4.442;2023-04-21T13:29:32;10.98;;;9.10;;
23608;SDS011;11982;50.810;4.442;2023-04-21T13:32:02;13.48;;;10.00;;
23608;SDS011;11982;50.810;4.442;2023-04-21T13:34:29;9.85;;;8.77;;
23608;SDS011;11982;50.810;4.442;2023-04-21T13:36:56;12.48;;;7.97;;
23608;SDS011;11982;50.810;4.442;2023-04-21T13:39:21;9.70;;;8.43;;
23608;SDS011;11982;50.810;4.442;2023-04-21T13:41:47;11.07;;;8.77;;
23608;SDS011;11982;50.810;4.442;2023-04-21T13:44:13;17.73;;;8.77;;
23608;SDS011;11982;50.810;4.442;2023-04-21T13:46:39;10.52;;;9.05;;
23608;SDS011;11982;50.810;4.442;2023-04-21T13:49:04;12.07;;;9.45;;
23608;SDS011;11982;50.810;4.442;2023-04-21T13:51:33;11.95;;;9.38;;
23608;SDS011;11982;50.810;4.442;2023-04-21T13:53:58;12.75;;;9.15;;
23608;SDS011;11982;50.810;4.442;2023-04-21T13:56:24;11.52;;;7.95;;
23608;SDS011;11982;50.810;4.442;2023-04-21T13:58:50;11.02;;;8.40;;
23608;SDS011;11982;50.810;4.442;2023-04-21T14:01:15;11.32;;;8.30;;
23608;SDS011;11982;50.810;4.442;2023-04-21T14:03:41;10.70;;;9.02;;
23608;SDS011;11982;50.810;4.442;2023-04-21T14:06:07;11.10;;;8.82;;
23608;SDS011;11982;50.810;4.442;2023-04-21T14:08:33;11.90;;;9.07;;
23608;SDS011;11982;50.810;4.442;2023-04-21T14:10:59;11.85;;;8.88;;
23608;SDS011;11982;50.810;4.442;2023-04-21T14:13:26;13.02;;;7.97;;
23608;SDS011;11982;50.810;4.442;2023-04-21T14:15:53;11.50;;;8.93;;
23608;SDS011;11982;50.810;4.442;2023-04-21T14:18:19;12.55;;;8.63;;
23608;SDS011;11982;50.810;4.442;2023-04-21T14:20:45;13.38;;;8.55;;
23608;SDS011;11982;50.810;4.442;2023-04-21T14:23:11;9.30;;;7.70;;
23608;SDS011;11982;50.810;4.442;2023-04-21T14:25:36;12.23;;;9.10;;
23608;SDS011;11982;50.810;4.442;2023-04-21T14:28:02;12.77;;;9.30;;
23608;SDS011;11982;50.810;4.442;2023-04-21T14:30:31;12.07;;;9.63;;
23608;SDS011;11982;50.810;4.442;2023-04-21T14:32:59;10.45;;;8.65;;
23608;SDS011;11982;50.810;4.442;2023-04-21T14:35:24;12.25;;;8.43;;
23608;SDS011;11982;50.810;4.442;2023-04-21T14:37:50;14.27;;;9.77;;
23608;SDS011;11982;50.810;4.442;2023-04-21T14:40:16;12.25;;;8.73;;